sensor_id;sensor_type;location;lat;lon;timestamp;temperature;humidity
22850;DHT22;11591;44.792;10.358;2023-04-15T00:01:21;13.00;97.20
22850;DHT22;11591;44.792;10.358;2023-04-15T00:03:49;13.10;97.20
22850;DHT22;11591;44.792;10.358;2023-04-15T00:06:15;13.10;97.30
22850;DHT22;11591;44.792;10.358;2023-04-15T00:08:41;13.10;97.40
22850;DHT22;11591;44.792;10.358;2023-04-15T00:11:06;13.00;97.50
22850;DHT22;11591;44.792;10.358;2023-04-15T00:13:32;13.00;97.50
22850;DHT22;11591;44.792;10.358;2023-04-15T00:16:01;13.00;97.00
22850;DHT22;11591;44.792;10.358;2023-04-15T00:18:27;12.90;96.60
22850;DHT22;11591;44.792;10.358;2023-04-15T00:20:54;12.90;96.30
22850;DHT22;11591;44.792;10.358;2023-04-15T00:23:20;12.90;96.30
22850;DHT22;11591;44.792;10.358;2023-04-15T00:25:46;12.90;96.40
22850;DHT22;11591;44.792;10.358;2023-04-15T00:28:11;12.80;96.50
22850;DHT22;11591;44.792;10.358;2023-04-15T00:30:38;12.80;96.90
22850;DHT22;11591;44.792;10.358;2023-04-15T00:33:04;12.80;96.70
22850;DHT22;11591;44.792;10.358;2023-04-15T00:35:30;12.80;97.10
22850;DHT22;11591;44.792;10.358;2023-04-15T00:37:59;12.80;97.10
22850;DHT22;11591;44.792;10.358;2023-04-15T00:40:25;12.80;97.30
22850;DHT22;11591;44.792;10.358;2023-04-15T00:42:52;12.80;97.10
22850;DHT22;11591;44.792;10.358;2023-04-15T00:45:18;12.80;97.10
22850;DHT22;11591;44.792;10.358;2023-04-15T00:47:45;12.80;97.30
22850;DHT22;11591;44.792;10.358;2023-04-15T00:50:11;12.70;97.40
22850;DHT22;11591;44.792;10.358;2023-04-15T00:52:38;12.70;97.60
22850;DHT22;11591;44.792;10.358;2023-04-15T00:55:04;12.70;97.50
22850;DHT22;11591;44.792;10.358;2023-04-15T00:57:31;12.70;97.60
22850;DHT22;11591;44.792;10.358;2023-04-15T00:59:57;12.70;97.70
22850;DHT22;11591;44.792;10.358;2023-04-15T01:02:23;12.70;97.70
22850;DHT22;11591;44.792;10.358;2023-04-15T01:04:49;12.80;97.70
22850;DHT22;11591;44.792;10.358;2023-04-15T01:07:15;12.80;97.70
22850;DHT22;11591;44.792;10.358;2023-04-15T01:09:42;12.80;97.70
22850;DHT22;11591;44.792;10.358;2023-04-15T01:12:11;12.70;97.70
22850;DHT22;11591;44.792;10.358;2023-04-15T01:14:38;12.70;97.50
22850;DHT22;11591;44.792;10.358;2023-04-15T01:17:04;12.70;97.60
22850;DHT22;11591;44.792;10.358;2023-04-15T01:19:32;12.60;97.30
22850;DHT22;11591;44.792;10.358;2023-04-15T01:21:58;12.60;97.20
22850;DHT22;11591;44.792;10.358;2023-04-15T01:24:25;12.50;97.00
22850;DHT22;11591;44.792;10.358;2023-04-15T01:26:53;12.40;97.10
22850;DHT22;11591;44.792;10.358;2023-04-15T01:29:19;12.30;97.00
22850;DHT22;11591;44.792;10.358;2023-04-15T01:31:52;12.30;97.20
22850;DHT22;11591;44.792;10.358;2023-04-15T01:34:19;12.20;97.40
22850;DHT22;11591;44.792;10.358;2023-04-15T01:36:45;12.10;97.60
22850;DHT22;11591;44.792;10.358;2023-04-15T01:39:13;12.10;97.60
22850;DHT22;11591;44.792;10.358;2023-04-15T01:41:39;12.20;97.50
22850;DHT22;11591;44.792;10.358;2023-04-15T01:44:07;12.20;97.40
22850;DHT22;11591;44.792;10.358;2023-04-15T01:46:34;12.20;97.20
22850;DHT22;11591;44.792;10.358;2023-04-15T01:49:00;12.20;96.90
22850;DHT22;11591;44.792;10.358;2023-04-15T01:51:26;12.20;96.60
22850;DHT22;11591;44.792;10.358;2023-04-15T01:53:52;12.10;96.50
22850;DHT22;11591;44.792;10.358;2023-04-15T01:56:22;12.00;96.10
22850;DHT22;11591;44.792;10.358;2023-04-15T01:58:51;11.80;96.60
22850;DHT22;11591;44.792;10.358;2023-04-15T02:01:17;11.80;96.90
22850;DHT22;11591;44.792;10.358;2023-04-15T02:03:46;11.70;97.00
22850;DHT22;11591;44.792;10.358;2023-04-15T02:06:14;11.60;97.10
22850;DHT22;11591;44.792;10.358;2023-04-15T02:08:40;11.50;97.30
22850;DHT22;11591;44.792;10.358;2023-04-15T02:11:06;11.50;97.30
22850;DHT22;11591;44.792;10.358;2023-04-15T02:13:32;11.50;97.40
22850;DHT22;11591;44.792;10.358;2023-04-15T02:15:58;11.50;97.50
22850;DHT22;11591;44.792;10.358;2023-04-15T02:18:24;11.40;97.50
22850;DHT22;11591;44.792;10.358;2023-04-15T02:20:52;11.30;97.60
22850;DHT22;11591;44.792;10.358;2023-04-15T02:23:18;11.30;97.80
22850;DHT22;11591;44.792;10.358;2023-04-15T02:25:44;11.20;98.00
22850;DHT22;11591;44.792;10.358;2023-04-15T02:28:10;11.20;98.00
22850;DHT22;11591;44.792;10.358;2023-04-15T02:30:36;11.20;97.70
22850;DHT22;11591;44.792;10.358;2023-04-15T02:33:02;11.20;97.20
22850;DHT22;11591;44.792;10.358;2023-04-15T02:35:28;11.20;97.00
22850;DHT22;11591;44.792;10.358;2023-04-15T02:37:54;11.10;96.80
22850;DHT22;11591;44.792;10.358;2023-04-15T02:40:20;11.10;96.80
22850;DHT22;11591;44.792;10.358;2023-04-15T02:42:46;11.10;96.60
22850;DHT22;11591;44.792;10.358;2023-04-15T02:45:14;11.00;96.60
22850;DHT22;11591;44.792;10.358;2023-04-15T02:47:42;11.00;96.30
22850;DHT22;11591;44.792;10.358;2023-04-15T02:50:11;10.90;96.10
22850;DHT22;11591;44.792;10.358;2023-04-15T02:52:39;10.80;96.10
22850;DHT22;11591;44.792;10.358;2023-04-15T02:55:06;10.80;96.10
22850;DHT22;11591;44.792;10.358;2023-04-15T02:57:33;10.70;96.00
22850;DHT22;11591;44.792;10.358;2023-04-15T03:00:05;10.70;96.00
22850;DHT22;11591;44.792;10.358;2023-04-15T03:02:35;10.70;95.90
22850;DHT22;11591;44.792;10.358;2023-04-15T03:05:02;10.70;95.70
22850;DHT22;11591;44.792;10.358;2023-04-15T03:07:30;10.70;95.70
22850;DHT22;11591;44.792;10.358;2023-04-15T03:09:56;10.80;95.70
22850;DHT22;11591;44.792;10.358;2023-04-15T03:12:22;10.80;95.60
22850;DHT22;11591;44.792;10.358;2023-04-15T03:14:49;10.70;95.30
22850;DHT22;11591;44.792;10.358;2023-04-15T03:17:15;10.60;95.40
22850;DHT22;11591;44.792;10.358;2023-04-15T03:19:43;10.30;95.60
22850;DHT22;11591;44.792;10.358;2023-04-15T03:22:10;10.30;95.90
22850;DHT22;11591;44.792;10.358;2023-04-15T03:24:36;10.40;95.90
22850;DHT22;11591;44.792;10.358;2023-04-15T03:27:02;10.40;96.10
22850;DHT22;11591;44.792;10.358;2023-04-15T03:29:28;10.50;96.40
22850;DHT22;11591;44.792;10.358;2023-04-15T03:31:53;10.60;96.50
22850;DHT22;11591;44.792;10.358;2023-04-15T03:34:19;10.70;97.00
22850;DHT22;11591;44.792;10.358;2023-04-15T03:36:45;10.80;96.90
22850;DHT22;11591;44.792;10.358;2023-04-15T03:39:11;10.80;96.70
22850;DHT22;11591;44.792;10.358;2023-04-15T03:41:37;10.80;96.40
22850;DHT22;11591;44.792;10.358;2023-04-15T03:44:03;10.70;96.00
22850;DHT22;11591;44.792;10.358;2023-04-15T03:46:29;10.60;95.80
22850;DHT22;11591;44.792;10.358;2023-04-15T03:48:55;10.60;96.00
22850;DHT22;11591;44.792;10.358;2023-04-15T03:51:20;10.60;96.60
22850;DHT22;11591;44.792;10.358;2023-04-15T03:53:46;10.60;96.70
22850;DHT22;11591;44.792;10.358;2023-04-15T03:56:12;10.60;96.50
22850;DHT22;11591;44.792;10.358;2023-04-15T03:58:38;10.60;96.70
22850;DHT22;11591;44.792;10.358;2023-04-15T04:01:03;10.60;96.80
22850;DHT22;11591;44.792;10.358;2023-04-15T04:03:29;10.60;96.90
22850;DHT22;11591;44.792;10.358;2023-04-15T04:05:55;10.60;97.20
22850;DHT22;11591;44.792;10.358;2023-04-15T04:08:21;10.60;97.60
22850;DHT22;11591;44.792;10.358;2023-04-15T04:10:47;10.60;97.60
22850;DHT22;11591;44.792;10.358;2023-04-15T04:13:12;10.60;97.50
22850;DHT22;11591;44.792;10.358;2023-04-15T04:15:38;10.70;97.50
22850;DHT22;11591;44.792;10.358;2023-04-15T04:18:04;10.70;97.50
22850;DHT22;11591;44.792;10.358;2023-04-15T04:20:30;10.70;97.70
22850;DHT22;11591;44.792;10.358;2023-04-15T04:22:56;10.70;97.80
22850;DHT22;11591;44.792;10.358;2023-04-15T04:25:22;10.60;98.40
22850;DHT22;11591;44.792;10.358;2023-04-15T04:27:49;10.50;98.60
22850;DHT22;11591;44.792;10.358;2023-04-15T04:30:15;10.40;99.00
22850;DHT22;11591;44.792;10.358;2023-04-15T04:32:40;10.30;99.10
22850;DHT22;11591;44.792;10.358;2023-04-15T04:35:06;10.40;99.10
22850;DHT22;11591;44.792;10.358;2023-04-15T04:37:32;10.30;99.00
22850;DHT22;11591;44.792;10.358;2023-04-15T04:39:58;10.30;99.20
22850;DHT22;11591;44.792;10.358;2023-04-15T04:42:24;10.20;99.50
22850;DHT22;11591;44.792;10.358;2023-04-15T04:44:50;10.20;99.90
22850;DHT22;11591;44.792;10.358;2023-04-15T04:47:16;10.10;99.90
22850;DHT22;11591;44.792;10.358;2023-04-15T04:49:41;10.10;99.90
22850;DHT22;11591;44.792;10.358;2023-04-15T04:52:07;10.20;99.90
22850;DHT22;11591;44.792;10.358;2023-04-15T04:54:33;10.30;99.90
22850;DHT22;11591;44.792;10.358;2023-04-15T04:56:59;10.20;99.70
22850;DHT22;11591;44.792;10.358;2023-04-15T04:59:25;10.20;99.80
22850;DHT22;11591;44.792;10.358;2023-04-15T05:01:51;10.10;99.90
22850;DHT22;11591;44.792;10.358;2023-04-15T05:04:17;10.00;99.90
22850;DHT22;11591;44.792;10.358;2023-04-15T05:06:42;10.00;99.90
22850;DHT22;11591;44.792;10.358;2023-04-15T05:09:08;9.90;99.90
22850;DHT22;11591;44.792;10.358;2023-04-15T05:11:34;10.00;99.90
22850;DHT22;11591;44.792;10.358;2023-04-15T05:14:00;10.10;99.90
22850;DHT22;11591;44.792;10.358;2023-04-15T05:16:26;10.20;99.90
22850;DHT22;11591;44.792;10.358;2023-04-15T05:18:52;10.20;99.90
22850;DHT22;11591;44.792;10.358;2023-04-15T05:21:19;10.30;99.90
22850;DHT22;11591;44.792;10.358;2023-04-15T05:23:44;10.20;99.90
22850;DHT22;11591;44.792;10.358;2023-04-15T05:26:10;10.10;99.90
22850;DHT22;11591;44.792;10.358;2023-04-15T05:28:36;10.10;99.90
22850;DHT22;11591;44.792;10.358;2023-04-15T05:31:02;10.20;99.90
22850;DHT22;11591;44.792;10.358;2023-04-15T05:33:28;10.20;99.90
22850;DHT22;11591;44.792;10.358;2023-04-15T05:35:54;10.20;99.90
22850;DHT22;11591;44.792;10.358;2023-04-15T05:38:20;10.30;99.80
22850;DHT22;11591;44.792;10.358;2023-04-15T05:40:45;10.30;99.70
22850;DHT22;11591;44.792;10.358;2023-04-15T05:43:11;10.30;99.60
22850;DHT22;11591;44.792;10.358;2023-04-15T05:45:37;10.30;99.90
22850;DHT22;11591;44.792;10.358;2023-04-15T05:48:03;10.30;99.90
22850;DHT22;11591;44.792;10.358;2023-04-15T05:50:29;10.30;99.80
22850;DHT22;11591;44.792;10.358;2023-04-15T05:52:54;10.40;99.70
22850;DHT22;11591;44.792;10.358;2023-04-15T05:55:21;10.30;99.60
22850;DHT22;11591;44.792;10.358;2023-04-15T05:57:47;10.30;99.50
22850;DHT22;11591;44.792;10.358;2023-04-15T06:00:13;10.40;99.70
22850;DHT22;11591;44.792;10.358;2023-04-15T06:02:39;10.40;99.70
22850;DHT22;11591;44.792;10.358;2023-04-15T06:05:06;10.50;99.50
22850;DHT22;11591;44.792;10.358;2023-04-15T06:07:37;10.50;99.40
22850;DHT22;11591;44.792;10.358;2023-04-15T06:10:04;10.50;99.40
22850;DHT22;11591;44.792;10.358;2023-04-15T06:12:30;10.60;99.30
22850;DHT22;11591;44.792;10.358;2023-04-15T06:14:56;10.60;99.50
22850;DHT22;11591;44.792;10.358;2023-04-15T06:17:22;10.60;99.40
22850;DHT22;11591;44.792;10.358;2023-04-15T06:19:48;10.70;99.10
22850;DHT22;11591;44.792;10.358;2023-04-15T06:22:15;10.70;98.80
22850;DHT22;11591;44.792;10.358;2023-04-15T06:24:41;10.80;98.60
22850;DHT22;11591;44.792;10.358;2023-04-15T06:27:07;10.70;98.30
22850;DHT22;11591;44.792;10.358;2023-04-15T06:29:32;10.80;98.20
22850;DHT22;11591;44.792;10.358;2023-04-15T06:31:58;10.90;98.20
22850;DHT22;11591;44.792;10.358;2023-04-15T06:34:24;10.90;98.10
22850;DHT22;11591;44.792;10.358;2023-04-15T06:36:50;10.70;98.20
22850;DHT22;11591;44.792;10.358;2023-04-15T06:39:15;10.70;98.40
22850;DHT22;11591;44.792;10.358;2023-04-15T06:41:41;10.70;98.40
22850;DHT22;11591;44.792;10.358;2023-04-15T06:44:07;10.80;98.40
22850;DHT22;11591;44.792;10.358;2023-04-15T06:46:33;10.90;98.50
22850;DHT22;11591;44.792;10.358;2023-04-15T06:48:59;11.00;98.50
22850;DHT22;11591;44.792;10.358;2023-04-15T06:51:25;11.10;98.40
22850;DHT22;11591;44.792;10.358;2023-04-15T06:53:51;11.10;98.30
22850;DHT22;11591;44.792;10.358;2023-04-15T06:56:17;11.20;98.20
22850;DHT22;11591;44.792;10.358;2023-04-15T06:58:42;11.10;98.20
22850;DHT22;11591;44.792;10.358;2023-04-15T07:01:08;11.20;98.30
22850;DHT22;11591;44.792;10.358;2023-04-15T07:03:34;11.30;98.60
22850;DHT22;11591;44.792;10.358;2023-04-15T07:06:00;11.40;98.80
22850;DHT22;11591;44.792;10.358;2023-04-15T07:08:26;11.40;98.90
22850;DHT22;11591;44.792;10.358;2023-04-15T07:10:52;11.50;99.10
22850;DHT22;11591;44.792;10.358;2023-04-15T07:13:18;11.50;99.00
22850;DHT22;11591;44.792;10.358;2023-04-15T07:15:44;11.60;99.20
22850;DHT22;11591;44.792;10.358;2023-04-15T07:18:10;11.60;99.20
22850;DHT22;11591;44.792;10.358;2023-04-15T07:20:36;11.70;99.00
22850;DHT22;11591;44.792;10.358;2023-04-15T07:23:02;11.50;98.70
22850;DHT22;11591;44.792;10.358;2023-04-15T07:25:28;11.50;98.70
22850;DHT22;11591;44.792;10.358;2023-04-15T07:27:53;11.60;98.70
22850;DHT22;11591;44.792;10.358;2023-04-15T07:30:20;11.50;98.60
22850;DHT22;11591;44.792;10.358;2023-04-15T07:32:45;11.50;98.70
22850;DHT22;11591;44.792;10.358;2023-04-15T07:35:11;11.40;98.70
22850;DHT22;11591;44.792;10.358;2023-04-15T07:37:38;11.50;98.80
22850;DHT22;11591;44.792;10.358;2023-04-15T07:40:04;11.60;99.20
22850;DHT22;11591;44.792;10.358;2023-04-15T07:42:32;11.80;99.60
22850;DHT22;11591;44.792;10.358;2023-04-15T07:44:58;11.90;99.70
22850;DHT22;11591;44.792;10.358;2023-04-15T07:47:24;12.10;99.40
22850;DHT22;11591;44.792;10.358;2023-04-15T07:49:50;12.20;99.40
22850;DHT22;11591;44.792;10.358;2023-04-15T07:52:16;12.30;98.90
22850;DHT22;11591;44.792;10.358;2023-04-15T07:54:41;12.30;98.60
22850;DHT22;11591;44.792;10.358;2023-04-15T07:57:07;12.10;98.70
22850;DHT22;11591;44.792;10.358;2023-04-15T07:59:33;12.20;99.00
22850;DHT22;11591;44.792;10.358;2023-04-15T08:01:59;12.30;99.30
22850;DHT22;11591;44.792;10.358;2023-04-15T08:04:25;12.30;99.60
22850;DHT22;11591;44.792;10.358;2023-04-15T08:06:50;12.50;99.90
22850;DHT22;11591;44.792;10.358;2023-04-15T08:09:17;12.60;99.90
22850;DHT22;11591;44.792;10.358;2023-04-15T08:11:42;12.60;99.90
22850;DHT22;11591;44.792;10.358;2023-04-15T08:14:08;12.70;99.90
22850;DHT22;11591;44.792;10.358;2023-04-15T08:16:34;12.80;99.90
22850;DHT22;11591;44.792;10.358;2023-04-15T08:19:00;12.90;99.90
22850;DHT22;11591;44.792;10.358;2023-04-15T08:21:26;12.80;99.40
22850;DHT22;11591;44.792;10.358;2023-04-15T08:23:52;12.80;99.60
22850;DHT22;11591;44.792;10.358;2023-04-15T08:26:19;12.80;99.90
22850;DHT22;11591;44.792;10.358;2023-04-15T08:28:46;12.80;99.90
22850;DHT22;11591;44.792;10.358;2023-04-15T08:31:13;12.80;99.90
22850;DHT22;11591;44.792;10.358;2023-04-15T08:33:39;12.90;99.90
22850;DHT22;11591;44.792;10.358;2023-04-15T08:36:05;12.90;99.80
22850;DHT22;11591;44.792;10.358;2023-04-15T08:38:32;13.00;99.80
22850;DHT22;11591;44.792;10.358;2023-04-15T08:41:02;13.00;99.70
22850;DHT22;11591;44.792;10.358;2023-04-15T08:43:33;13.00;99.90
22850;DHT22;11591;44.792;10.358;2023-04-15T08:45:59;13.00;98.40
22850;DHT22;11591;44.792;10.358;2023-04-15T08:48:32;13.10;99.20
22850;DHT22;11591;44.792;10.358;2023-04-15T08:50:59;13.10;99.50
22850;DHT22;11591;44.792;10.358;2023-04-15T08:53:27;13.20;98.80
22850;DHT22;11591;44.792;10.358;2023-04-15T08:55:56;13.20;97.80
22850;DHT22;11591;44.792;10.358;2023-04-15T08:58:23;13.20;97.00
22850;DHT22;11591;44.792;10.358;2023-04-15T09:00:49;13.20;96.70
22850;DHT22;11591;44.792;10.358;2023-04-15T09:03:15;13.20;96.50
22850;DHT22;11591;44.792;10.358;2023-04-15T09:05:42;13.20;96.40
22850;DHT22;11591;44.792;10.358;2023-04-15T09:08:08;13.30;96.30
22850;DHT22;11591;44.792;10.358;2023-04-15T09:10:33;13.30;96.30
22850;DHT22;11591;44.792;10.358;2023-04-15T09:13:00;13.30;96.40
22850;DHT22;11591;44.792;10.358;2023-04-15T09:15:26;13.30;96.60
22850;DHT22;11591;44.792;10.358;2023-04-15T09:17:54;13.30;96.60
22850;DHT22;11591;44.792;10.358;2023-04-15T09:20:21;13.40;96.70
22850;DHT22;11591;44.792;10.358;2023-04-15T09:22:49;13.40;96.80
22850;DHT22;11591;44.792;10.358;2023-04-15T09:27:58;13.50;98.00
22850;DHT22;11591;44.792;10.358;2023-04-15T09:30:26;13.60;98.70
22850;DHT22;11591;44.792;10.358;2023-04-15T09:33:00;13.70;98.50
22850;DHT22;11591;44.792;10.358;2023-04-15T09:35:33;13.70;98.80
22850;DHT22;11591;44.792;10.358;2023-04-15T09:38:06;13.80;98.70
22850;DHT22;11591;44.792;10.358;2023-04-15T09:40:37;13.90;98.70
22850;DHT22;11591;44.792;10.358;2023-04-15T09:43:04;14.00;98.60
22850;DHT22;11591;44.792;10.358;2023-04-15T09:45:31;14.00;98.60
22850;DHT22;11591;44.792;10.358;2023-04-15T09:47:59;14.10;98.30
22850;DHT22;11591;44.792;10.358;2023-04-15T09:50:28;14.10;98.20
22850;DHT22;11591;44.792;10.358;2023-04-15T09:52:54;14.10;98.10
22850;DHT22;11591;44.792;10.358;2023-04-15T09:58:55;14.20;98.40
22850;DHT22;11591;44.792;10.358;2023-04-15T10:01:21;14.30;98.00
22850;DHT22;11591;44.792;10.358;2023-04-15T10:03:48;14.30;97.70
22850;DHT22;11591;44.792;10.358;2023-04-15T10:06:14;14.30;97.60
22850;DHT22;11591;44.792;10.358;2023-04-15T10:08:40;14.40;98.00
22850;DHT22;11591;44.792;10.358;2023-04-15T10:11:07;14.40;98.30
22850;DHT22;11591;44.792;10.358;2023-04-15T10:13:33;14.50;98.00
22850;DHT22;11591;44.792;10.358;2023-04-15T10:16:06;14.60;97.50
22850;DHT22;11591;44.792;10.358;2023-04-15T10:18:35;14.60;97.20
22850;DHT22;11591;44.792;10.358;2023-04-15T10:21:03;14.60;96.70
22850;DHT22;11591;44.792;10.358;2023-04-15T10:23:31;14.60;97.50
22850;DHT22;11591;44.792;10.358;2023-04-15T10:25:57;14.60;98.10
22850;DHT22;11591;44.792;10.358;2023-04-15T10:28:25;14.60;98.90
22850;DHT22;11591;44.792;10.358;2023-04-15T10:30:51;14.60;99.00
22850;DHT22;11591;44.792;10.358;2023-04-15T10:33:21;14.70;98.80
22850;DHT22;11591;44.792;10.358;2023-04-15T10:35:52;14.70;98.10
22850;DHT22;11591;44.792;10.358;2023-04-15T10:38:38;14.80;98.30
22850;DHT22;11591;44.792;10.358;2023-04-15T10:41:20;14.90;98.80
22850;DHT22;11591;44.792;10.358;2023-04-15T10:43:59;14.90;99.20
22850;DHT22;11591;44.792;10.358;2023-04-15T10:46:40;15.00;99.60
22850;DHT22;11591;44.792;10.358;2023-04-15T10:49:23;15.00;99.70
22850;DHT22;11591;44.792;10.358;2023-04-15T10:51:57;15.10;99.50
22850;DHT22;11591;44.792;10.358;2023-04-15T10:57:07;15.20;98.70
22850;DHT22;11591;44.792;10.358;2023-04-15T10:59:38;15.20;97.90
22850;DHT22;11591;44.792;10.358;2023-04-15T11:02:39;15.20;98.20
22850;DHT22;11591;44.792;10.358;2023-04-15T11:05:05;15.30;98.90
22850;DHT22;11591;44.792;10.358;2023-04-15T11:07:53;15.30;97.90
22850;DHT22;11591;44.792;10.358;2023-04-15T11:13:02;15.40;99.10
22850;DHT22;11591;44.792;10.358;2023-04-15T11:20:37;15.60;98.50
22850;DHT22;11591;44.792;10.358;2023-04-15T11:23:04;15.70;98.30
22850;DHT22;11591;44.792;10.358;2023-04-15T11:25:34;15.80;98.30
22850;DHT22;11591;44.792;10.358;2023-04-15T11:28:03;15.80;98.20
22850;DHT22;11591;44.792;10.358;2023-04-15T11:30:31;15.90;97.90
22850;DHT22;11591;44.792;10.358;2023-04-15T11:33:02;16.00;98.10
22850;DHT22;11591;44.792;10.358;2023-04-15T11:35:29;16.10;97.90
22850;DHT22;11591;44.792;10.358;2023-04-15T11:37:55;16.20;98.30
22850;DHT22;11591;44.792;10.358;2023-04-15T11:40:28;16.30;97.40
22850;DHT22;11591;44.792;10.358;2023-04-15T11:43:07;16.30;96.80
22850;DHT22;11591;44.792;10.358;2023-04-15T11:45:33;16.30;97.60
22850;DHT22;11591;44.792;10.358;2023-04-15T11:48:08;16.30;98.10
22850;DHT22;11591;44.792;10.358;2023-04-15T11:50:35;16.40;98.90
22850;DHT22;11591;44.792;10.358;2023-04-15T11:53:04;16.60;98.80
22850;DHT22;11591;44.792;10.358;2023-04-15T11:55:30;16.70;98.10
22850;DHT22;11591;44.792;10.358;2023-04-15T11:58:13;16.70;98.20
22850;DHT22;11591;44.792;10.358;2023-04-15T12:00:41;16.80;98.20
22850;DHT22;11591;44.792;10.358;2023-04-15T12:03:27;16.90;97.80
22850;DHT22;11591;44.792;10.358;2023-04-15T12:06:41;17.00;97.50
22850;DHT22;11591;44.792;10.358;2023-04-15T12:14:12;17.10;95.90
22850;DHT22;11591;44.792;10.358;2023-04-15T12:16:49;17.20;96.00
22850;DHT22;11591;44.792;10.358;2023-04-15T12:19:26;17.20;95.50
22850;DHT22;11591;44.792;10.358;2023-04-15T12:22:00;17.30;95.20
22850;DHT22;11591;44.792;10.358;2023-04-15T12:24:27;17.40;95.10
22850;DHT22;11591;44.792;10.358;2023-04-15T12:26:56;17.40;94.50
22850;DHT22;11591;44.792;10.358;2023-04-15T12:29:27;17.40;94.90
22850;DHT22;11591;44.792;10.358;2023-04-15T12:32:03;17.50;94.50
22850;DHT22;11591;44.792;10.358;2023-04-15T12:34:40;17.60;94.00
22850;DHT22;11591;44.792;10.358;2023-04-15T12:37:07;17.70;93.70
22850;DHT22;11591;44.792;10.358;2023-04-15T12:39:38;17.80;94.20
22850;DHT22;11591;44.792;10.358;2023-04-15T12:42:06;17.80;94.40
22850;DHT22;11591;44.792;10.358;2023-04-15T12:44:33;18.00;94.00
22850;DHT22;11591;44.792;10.358;2023-04-15T12:47:00;18.10;93.20
22850;DHT22;11591;44.792;10.358;2023-04-15T12:49:26;18.20;93.50
22850;DHT22;11591;44.792;10.358;2023-04-15T12:51:54;18.30;93.50
22850;DHT22;11591;44.792;10.358;2023-04-15T12:54:21;18.40;93.00
22850;DHT22;11591;44.792;10.358;2023-04-15T12:56:47;18.50;92.70
22850;DHT22;11591;44.792;10.358;2023-04-15T12:59:15;18.60;92.40
22850;DHT22;11591;44.792;10.358;2023-04-15T13:01:43;18.60;91.90
22850;DHT22;11591;44.792;10.358;2023-04-15T13:04:09;18.80;91.40
22850;DHT22;11591;44.792;10.358;2023-04-15T13:06:36;18.80;91.20
22850;DHT22;11591;44.792;10.358;2023-04-15T13:09:03;18.90;92.00
22850;DHT22;11591;44.792;10.358;2023-04-15T13:11:29;19.00;92.00
22850;DHT22;11591;44.792;10.358;2023-04-15T13:13:56;19.00;91.60
22850;DHT22;11591;44.792;10.358;2023-04-15T13:16:22;19.10;90.80
22850;DHT22;11591;44.792;10.358;2023-04-15T13:18:49;19.20;90.90
22850;DHT22;11591;44.792;10.358;2023-04-15T13:21:15;19.30;91.60
22850;DHT22;11591;44.792;10.358;2023-04-15T13:23:41;19.40;91.70
22850;DHT22;11591;44.792;10.358;2023-04-15T13:26:07;19.40;91.50
22850;DHT22;11591;44.792;10.358;2023-04-15T13:28:33;19.50;91.80
22850;DHT22;11591;44.792;10.358;2023-04-15T13:30:59;19.50;91.10
22850;DHT22;11591;44.792;10.358;2023-04-15T13:33:26;19.50;90.60
22850;DHT22;11591;44.792;10.358;2023-04-15T13:35:52;19.50;90.50
22850;DHT22;11591;44.792;10.358;2023-04-15T13:38:18;19.70;90.60
22850;DHT22;11591;44.792;10.358;2023-04-15T13:40:43;19.80;91.40
22850;DHT22;11591;44.792;10.358;2023-04-15T13:43:09;19.80;91.60
22850;DHT22;11591;44.792;10.358;2023-04-15T13:45:35;19.80;91.20
22850;DHT22;11591;44.792;10.358;2023-04-15T13:48:01;19.70;90.90
22850;DHT22;11591;44.792;10.358;2023-04-15T13:50:27;19.70;90.60
22850;DHT22;11591;44.792;10.358;2023-04-15T13:52:53;19.60;90.60
22850;DHT22;11591;44.792;10.358;2023-04-15T13:55:19;19.60;90.50
22850;DHT22;11591;44.792;10.358;2023-04-15T13:57:44;19.60;90.10
22850;DHT22;11591;44.792;10.358;2023-04-15T14:00:11;19.80;90.00
22850;DHT22;11591;44.792;10.358;2023-04-15T14:02:37;19.90;88.20
22850;DHT22;11591;44.792;10.358;2023-04-15T14:05:03;20.10;88.40
22850;DHT22;11591;44.792;10.358;2023-04-15T14:07:29;20.30;89.90
22850;DHT22;11591;44.792;10.358;2023-04-15T14:09:55;20.50;90.40
22850;DHT22;11591;44.792;10.358;2023-04-15T14:12:21;20.80;90.30
22850;DHT22;11591;44.792;10.358;2023-04-15T14:14:47;21.20;90.20
22850;DHT22;11591;44.792;10.358;2023-04-15T14:17:13;21.90;90.00
22850;DHT22;11591;44.792;10.358;2023-04-15T14:19:39;22.70;89.10
22850;DHT22;11591;44.792;10.358;2023-04-15T14:22:04;23.60;87.60
22850;DHT22;11591;44.792;10.358;2023-04-15T14:24:30;24.40;86.30
22850;DHT22;11591;44.792;10.358;2023-04-15T14:26:57;24.70;82.90
22850;DHT22;11591;44.792;10.358;2023-04-15T14:29:23;25.20;81.20
22850;DHT22;11591;44.792;10.358;2023-04-15T14:31:49;25.70;80.10
22850;DHT22;11591;44.792;10.358;2023-04-15T14:34:16;26.00;79.40
22850;DHT22;11591;44.792;10.358;2023-04-15T14:36:42;26.20;79.40
22850;DHT22;11591;44.792;10.358;2023-04-15T14:39:09;26.40;80.20
22850;DHT22;11591;44.792;10.358;2023-04-15T14:41:35;26.60;80.10
22850;DHT22;11591;44.792;10.358;2023-04-15T14:44:02;26.80;79.90
22850;DHT22;11591;44.792;10.358;2023-04-15T14:46:28;26.90;79.20
22850;DHT22;11591;44.792;10.358;2023-04-15T14:48:53;26.80;78.40
22850;DHT22;11591;44.792;10.358;2023-04-15T14:51:19;26.90;78.00
22850;DHT22;11591;44.792;10.358;2023-04-15T14:53:45;27.00;77.90
22850;DHT22;11591;44.792;10.358;2023-04-15T14:56:11;27.10;77.80
22850;DHT22;11591;44.792;10.358;2023-04-15T14:58:36;26.90;77.60
22850;DHT22;11591;44.792;10.358;2023-04-15T15:01:03;26.90;77.10
22850;DHT22;11591;44.792;10.358;2023-04-15T15:03:29;26.90;76.40
22850;DHT22;11591;44.792;10.358;2023-04-15T15:05:55;27.10;76.20
22850;DHT22;11591;44.792;10.358;2023-04-15T15:08:22;27.10;76.10
22850;DHT22;11591;44.792;10.358;2023-04-15T15:10:48;27.20;76.90
22850;DHT22;11591;44.792;10.358;2023-04-15T15:13:14;27.00;77.10
22850;DHT22;11591;44.792;10.358;2023-04-15T15:15:40;26.80;76.10
22850;DHT22;11591;44.792;10.358;2023-04-15T15:18:06;26.60;76.30
22850;DHT22;11591;44.792;10.358;2023-04-15T15:20:32;26.20;77.20
22850;DHT22;11591;44.792;10.358;2023-04-15T15:22:59;25.90;77.70
22850;DHT22;11591;44.792;10.358;2023-04-15T15:25:25;25.80;78.70
22850;DHT22;11591;44.792;10.358;2023-04-15T15:27:51;25.70;79.50
22850;DHT22;11591;44.792;10.358;2023-04-15T15:30:17;25.90;79.60
22850;DHT22;11591;44.792;10.358;2023-04-15T15:32:43;26.10;80.00
22850;DHT22;11591;44.792;10.358;2023-04-15T15:35:09;26.10;82.50
22850;DHT22;11591;44.792;10.358;2023-04-15T15:37:36;26.00;83.50